Time;durP1;ratioP1;P1;durP2;ratioP2;P2;SDS_P1;SDS_P2;PMS_P1;PMS_P2;Temp;Humidity;BMP_temperature;BMP_pressure;BME280_temperature;BME280_humidity;BME280_pressure;Samples;Min_cycle;Max_cycle;Signal;HPM_P1;HPM_P2
2022/03/29 00:00:51;;;;;;;22.20;10.88;;;;;;;12.19;57.07;101591.34;6277841;22;20006;-61
2022/03/29 00:03:17;;;;;;;22.58;11.38;;;;;;;12.10;57.66;101587.66;6278391;22;20003;-60
2022/03/29 00:05:42;;;;;;;22.98;12.18;;;;;;;12.00;57.69;101591.91;6278079;22;20004;-60
2022/03/29 00:08:08;;;;;;;20.48;11.55;;;;;;;12.05;57.97;101592.88;6277913;22;20054;-60
2022/03/29 00:10:34;;;;;;;24.48;11.90;;;;;;;12.06;57.67;101594.66;6277895;22;20003;-61
2022/03/29 00:12:59;;;;;;;22.55;12.25;;;;;;;12.02;58.06;101587.53;6277941;22;20006;-60
2022/03/29 00:15:25;;;;;;;19.27;11.48;;;;;;;12.07;57.51;101583.19;6278297;22;20010;-60
2022/03/29 00:17:50;;;;;;;24.02;11.70;;;;;;;12.06;57.36;101576.13;6277834;22;20007;-60
2022/03/29 00:20:17;;;;;;;19.23;11.82;;;;;;;12.13;57.25;101579.78;6277780;22;20042;-60
2022/03/29 00:22:43;;;;;;;24.67;11.98;;;;;;;12.11;57.22;101584.13;6277861;22;20008;-60
2022/03/29 00:25:09;;;;;;;22.35;12.18;;;;;;;12.14;57.28;101582.44;6277898;22;20072;-60
2022/03/29 00:27:36;;;;;;;22.90;12.00;;;;;;;12.17;57.21;101579.84;6250576;22;20020;-60
2022/03/29 00:30:03;;;;;;;21.00;11.75;;;;;;;12.14;57.62;101579.78;6277857;22;20008;-60
2022/03/29 00:32:29;;;;;;;23.17;13.15;;;;;;;11.97;58.57;101575.97;6278035;22;20000;-60
2022/03/29 00:34:54;;;;;;;23.73;12.80;;;;;;;11.92;58.15;101570.59;6277826;22;20325;-60
2022/03/29 00:37:20;;;;;;;19.45;12.68;;;;;;;11.83;58.60;101567.78;6277175;22;20004;-60
2022/03/29 00:39:45;;;;;;;22.52;12.98;;;;;;;11.88;58.47;101562.56;6277697;22;20008;-60
2022/03/29 00:42:11;;;;;;;25.10;12.88;;;;;;;11.89;58.48;101564.34;6277527;22;20429;-61
2022/03/29 00:44:38;;;;;;;21.88;12.40;;;;;;;11.91;58.60;101562.63;6250583;22;20433;-60
2022/03/29 00:47:04;;;;;;;23.23;13.38;;;;;;;11.78;59.03;101557.09;6277739;22;20032;-60
2022/03/29 00:49:30;;;;;;;25.75;13.20;;;;;;;11.85;58.17;101557.22;6277557;22;20447;-60
2022/03/29 00:51:59;;;;;;;23.25;13.50;;;;;;;11.72;59.22;101549.03;6278071;22;20000;-60
2022/03/29 00:54:26;;;;;;;28.02;13.80;;;;;;;11.72;58.82;101548.13;6277670;22;20328;-60
2022/03/29 00:56:51;;;;;;;23.55;13.18;;;;;;;11.71;58.64;101541.94;6277405;22;20059;-60
2022/03/29 00:59:18;;;;;;;23.48;13.00;;;;;;;11.74;58.55;101534.06;6277559;22;20026;-60
2022/03/29 01:01:44;;;;;;;22.38;12.93;;;;;;;11.67;58.79;101533.94;6277405;22;20455;-60
2022/03/29 01:04:10;;;;;;;20.05;12.48;;;;;;;11.63;58.65;101532.09;6277441;22;20325;-60
2022/03/29 01:06:37;;;;;;;21.58;11.68;;;;;;;11.60;58.81;101532.03;6277492;22;20007;-59
2022/03/29 01:09:03;;;;;;;21.52;12.05;;;;;;;11.52;58.42;101529.28;6277453;22;20031;-60
2022/03/29 01:11:29;;;;;;;20.38;13.00;;;;;;;11.46;59.00;101530.03;6277153;22;20421;-61
2022/03/29 01:13:55;;;;;;;20.20;12.68;;;;;;;11.42;59.18;101527.31;6277705;22;20011;-60
2022/03/29 01:19:09;;;;;;;19.20;12.57;;;;;;;11.41;59.21;101514.94;6277396;22;20038;-60
2022/03/29 01:21:37;;;;;;;24.38;13.40;;;;;;;11.36;59.55;101514.88;6277487;22;20086;-60
2022/03/29 01:24:04;;;;;;;22.63;13.15;;;;;;;11.35;59.48;101523.69;6277702;22;20004;-61
2022/03/29 01:26:30;;;;;;;20.80;13.38;;;;;;;11.42;59.66;101508.78;6277304;22;20004;-60
2022/03/29 01:28:57;;;;;;;23.02;13.85;;;;;;;11.40;59.80;101518.47;6277215;22;20083;-59
2022/03/29 01:31:24;;;;;;;22.10;13.77;;;;;;;11.35;60.03;101521.03;6277188;22;20008;-60
2022/03/29 01:33:50;;;;;;;20.40;13.20;;;;;;;11.31;59.66;101513.91;6277130;22;20000;-60
2022/03/29 01:36:15;;;;;;;20.10;13.48;;;;;;;11.32;59.74;101517.44;6277258;22;20010;-60
2022/03/29 01:38:41;;;;;;;20.98;13.27;;;;;;;11.26;59.91;101513.81;6276607;22;20035;-60
2022/03/29 01:41:07;;;;;;;27.75;14.60;;;;;;;11.14;60.74;101513.59;6276977;22;20046;-60
2022/03/29 01:43:32;;;;;;;23.95;13.60;;;;;;;11.17;60.16;101508.31;6277253;22;20440;-60
2022/03/29 01:45:58;;;;;;;24.17;14.73;;;;;;;11.15;60.31;101510.06;6277344;22;20000;-60
2022/03/29 01:48:24;;;;;;;21.80;14.23;;;;;;;11.12;60.75;101511.75;6277172;22;20003;-60
2022/03/29 01:50:51;;;;;;;25.15;14.82;;;;;;;11.04;61.21;101507.19;6277517;22;20074;-60
2022/03/29 01:53:27;;;;;;;25.77;15.40;;;;;;;11.04;61.14;101508.97;6277036;22;20006;-60
2022/03/29 01:55:58;;;;;;;27.08;16.15;;;;;;;11.03;61.43;101497.50;6276870;22;20030;-60
2022/03/29 01:58:24;;;;;;;24.33;15.75;;;;;;;10.95;62.03;101487.63;6276998;22;20000;-60
2022/03/29 02:00:50;;;;;;;26.35;15.90;;;;;;;10.90;62.00;101491.94;6277165;22;20008;-60
2022/03/29 02:03:15;;;;;;;25.38;16.15;;;;;;;10.88;62.39;101484.00;6277072;22;20042;-60
2022/03/29 02:05:41;;;;;;;25.67;16.38;;;;;;;10.83;62.56;101482.09;6276919;22;20000;-60
2022/03/29 02:08:07;;;;;;;25.33;15.82;;;;;;;10.78;62.83;101477.59;6277027;22;20075;-60
2022/03/29 02:10:33;;;;;;;26.88;16.45;;;;;;;10.90;61.95;101473.44;6249527;22;20058;-60
2022/03/29 02:12:58;;;;;;;24.20;16.73;;;;;;;10.90;62.56;101476.06;6276868;22;20328;-60
2022/03/29 02:15:24;;;;;;;23.50;15.60;;;;;;;10.93;62.05;101469.09;6276887;22;20010;-60
2022/03/29 02:17:50;;;;;;;34.22;16.30;;;;;;;10.81;62.45;101466.22;6276929;22;20004;-61
2022/03/29 02:20:17;;;;;;;33.40;16.40;;;;;;;10.76;62.72;101466.13;6276756;22;20031;-60
2022/03/29 02:22:44;;;;;;;27.63;17.15;;;;;;;10.76;62.53;101460.84;6276505;22;20007;-60
2022/03/29 02:25:10;;;;;;;30.80;18.10;;;;;;;10.67;63.28;101465.94;6276906;22;20007;-60
2022/03/29 02:27:41;;;;;;;28.38;17.73;;;;;;;10.74;62.86;101456.38;6276747;22;20306;-61
2022/03/29 02:30:07;;;;;;;28.73;17.23;;;;;;;10.64;63.38;101460.59;6277203;22;20133;-60
2022/03/29 02:32:33;;;;;;;29.08;17.42;;;;;;;10.67;63.19;101450.09;6276601;22;20437;-60
2022/03/29 02:34:59;;;;;;;27.15;18.08;;;;;;;10.64;63.57;101451.78;6276706;22;20000;-60
2022/03/29 02:37:24;;;;;;;28.58;18.00;;;;;;;10.60;63.40;101442.88;6276255;22;20023;-61
2022/03/29 02:39:49;;;;;;;30.23;18.75;;;;;;;10.55;63.99;101447.19;6276461;22;20007;-60
2022/03/29 02:42:15;;;;;;;26.23;17.13;;;;;;;10.56;64.42;101434.88;6276595;22;20317;-60
2022/03/29 02:44:40;;;;;;;29.30;18.63;;;;;;;10.47;64.66;101428.53;6276822;22;20060;-60
2022/03/29 02:47:06;;;;;;;30.25;18.80;;;;;;;10.46;64.68;101434.69;6276945;22;20003;-60
2022/03/29 02:49:31;;;;;;;33.72;20.05;;;;;;;10.36;65.31;101431.81;6276629;22;20068;-60
2022/03/29 02:51:57;;;;;;;30.63;20.00;;;;;;;10.27;65.81;101440.44;6276636;22;20432;-60
2022/03/29 02:54:23;;;;;;;32.50;20.83;;;;;;;10.18;66.08;101433.16;6276566;22;20479;-61
2022/03/29 02:56:48;;;;;;;33.13;20.70;;;;;;;10.10;66.30;101428.56;6276413;22;20413;-60
2022/03/29 02:59:14;;;;;;;36.03;20.13;;;;;;;10.13;66.22;101418.09;6276502;22;20004;-60
2022/03/29 03:01:40;;;;;;;31.38;20.58;;;;;;;10.16;66.21;101421.69;6276615;22;20000;-60
2022/03/29 03:04:06;;;;;;;34.45;20.98;;;;;;;10.14;66.12;101417.22;6276544;22;20004;-60
2022/03/29 03:06:31;;;;;;;31.92;20.02;;;;;;;10.22;65.83;101410.34;6249432;22;20004;-60
2022/03/29 03:08:57;;;;;;;33.10;20.92;;;;;;;10.13;66.35;101405.75;6276564;22;20365;-60
2022/03/29 03:11:28;;;;;;;32.92;20.05;;;;;;;10.20;65.90;101406.81;6276609;22;20007;-61
2022/03/29 03:13:54;;;;;;;38.78;21.10;;;;;;;10.37;66.08;101407.19;6276521;22;20000;-60
2022/03/29 03:16:19;;;;;;;38.08;21.27;;;;;;;10.43;64.91;101404.66;6276504;22;20049;-60
2022/03/29 03:18:45;;;;;;;33.33;21.13;;;;;;;10.42;64.93;101406.41;6276395;22;20004;-60
2022/03/29 03:21:10;;;;;;;37.33;21.73;;;;;;;10.39;65.21;101402.81;6276460;22;20035;-60
2022/03/29 03:23:36;;;;;;;31.30;20.52;;;;;;;10.34;65.44;101404.47;6276416;22;20007;-60
2022/03/29 03:26:01;;;;;;;31.63;21.25;;;;;;;10.22;65.80;101407.72;6276214;22;20008;-61
2022/03/29 03:28:26;;;;;;;35.08;21.17;;;;;;;10.14;66.25;101406.66;6249327;22;20004;-60
2022/03/29 03:30:53;;;;;;;35.47;21.30;;;;;;;10.20;66.16;101405.06;6276413;22;20015;-60
2022/03/29 03:33:18;;;;;;;34.47;22.30;;;;;;;10.23;66.03;101399.81;6276772;22;20003;-60
2022/03/29 03:35:44;;;;;;;34.05;21.10;;;;;;;10.26;65.78;101402.56;6277943;22;20079;-60
2022/03/29 03:38:10;;;;;;;37.53;22.50;;;;;;;10.30;65.32;101397.34;6278320;22;20342;-60
2022/03/29 03:40:35;;;;;;;37.20;22.83;;;;;;;10.15;66.28;101392.59;6278156;22;20468;-60
2022/03/29 03:43:02;;;;;;;37.17;21.88;;;;;;;10.17;65.96;101393.53;6278644;22;20317;-60
2022/03/29 03:45:28;;;;;;;37.97;23.60;;;;;;;10.23;66.03;101391.88;6278316;22;20000;-60
2022/03/29 03:47:53;;;;;;;36.60;22.88;;;;;;;10.23;65.49;101388.34;6278391;22;20010;-60
2022/03/29 03:50:19;;;;;;;35.67;23.83;;;;;;;10.13;66.00;101395.19;6278575;22;20004;-60
2022/03/29 03:52:45;;;;;;;37.63;22.77;;;;;;;9.99;66.84;101387.00;6278335;22;19999;-60
2022/03/29 03:55:10;;;;;;;38.63;23.65;;;;;;;9.94;67.01;101380.72;6276722;22;20007;-60
2022/03/29 03:57:37;;;;;;;38.67;23.65;;;;;;;9.82;67.78;101383.09;6278068;22;20004;-61
2022/03/29 04:00:06;;;;;;;36.58;23.95;;;;;;;9.74;67.62;101382.91;6278147;22;20387;-60
2022/03/29 04:02:33;;;;;;;38.38;23.77;;;;;;;9.69;67.53;101374.00;6278110;22;20007;-60
2022/03/29 04:04:59;;;;;;;38.85;23.20;;;;;;;9.63;68.05;101376.47;6278352;22;20004;-60
2022/03/29 04:07:24;;;;;;;43.72;23.67;;;;;;;9.65;67.73;101373.91;6278087;22;20010;-60
2022/03/29 04:09:50;;;;;;;40.90;24.75;;;;;;;9.57;67.92;101372.84;6278030;22;20087;-60
2022/03/29 04:12:15;;;;;;;38.05;23.67;;;;;;;9.61;67.70;101367.66;6277950;22;19999;-60
2022/03/29 04:14:41;;;;;;;37.03;24.20;;;;;;;9.62;67.66;101366.78;6278136;22;20067;-60
2022/03/29 04:17:09;;;;;;;39.28;24.27;;;;;;;9.59;67.86;101369.34;6278276;22;20014;-60
2022/03/29 04:19:34;;;;;;;35.08;23.95;;;;;;;9.63;67.67;101370.31;6277996;22;19999;-60
2022/03/29 04:22:00;;;;;;;36.63;23.85;;;;;;;9.67;67.81;101366.91;6250855;22;20065;-60
2022/03/29 04:24:26;;;;;;;39.65;24.58;;;;;;;9.66;67.38;101351.94;6277943;22;19999;-60
2022/03/29 04:26:51;;;;;;;38.88;24.42;;;;;;;9.72;66.99;101349.41;6278069;22;20294;-60
2022/03/29 04:29:17;;;;;;;38.63;24.70;;;;;;;9.67;67.56;101356.34;6278025;22;20057;-60
2022/03/29 04:31:43;;;;;;;39.88;25.83;;;;;;;9.58;68.25;101349.09;6278195;22;20008;-60
2022/03/29 04:34:08;;;;;;;41.70;25.60;;;;;;;9.56;67.88;101349.94;6277936;22;20031;-60
2022/03/29 04:36:34;;;;;;;38.80;25.80;;;;;;;9.47;68.38;101345.34;6250731;22;20004;-60
2022/03/29 04:38:59;;;;;;;37.83;24.75;;;;;;;9.42;68.50;101342.63;6277318;22;20057;-60
2022/03/29 04:41:25;;;;;;;40.33;24.65;;;;;;;9.46;68.30;101348.81;6278067;22;20325;-60
2022/03/29 04:43:50;;;;;;;38.13;25.75;;;;;;;9.42;68.55;101352.25;6277624;22;19999;-61
2022/03/29 04:46:17;;;;;;;40.70;26.15;;;;;;;9.39;68.54;101346.91;6277244;22;20133;-59
2022/03/29 04:48:42;;;;;;;41.47;25.25;;;;;;;9.31;69.50;101348.47;6277773;22;20046;-58
2022/03/29 04:51:08;;;;;;;41.78;25.35;;;;;;;9.21;69.92;101343.00;6250466;22;20364;-58
2022/03/29 04:53:33;;;;;;;39.47;25.83;;;;;;;9.12;70.10;101339.22;6277959;22;20004;-58
2022/03/29 04:55:59;;;;;;;43.38;26.13;;;;;;;9.09;70.38;101341.81;6250425;22;20425;-58
2022/03/29 04:58:25;;;;;;;42.10;27.20;;;;;;;8.99;71.06;101340.66;6277495;22;20004;-58
2022/03/29 05:00:51;;;;;;;46.75;26.85;;;;;;;8.93;71.44;101333.50;6277470;22;20004;-60
2022/03/29 05:03:16;;;;;;;45.55;28.23;;;;;;;8.87;71.35;101345.66;6277924;22;20007;-60
2022/03/29 05:05:44;;;;;;;47.33;28.40;;;;;;;8.88;70.71;101334.25;6277563;22;20000;-61
2022/03/29 05:08:10;;;;;;;47.88;28.83;;;;;;;8.84;71.51;101332.38;6277447;22;20000;-60
2022/03/29 05:10:35;;;;;;;44.88;27.98;;;;;;;8.88;72.22;101316.69;6277511;22;20057;-61
2022/03/29 05:13:01;;;;;;;43.20;27.17;;;;;;;8.86;72.50;101317.47;6277403;22;20054;-61
2022/03/29 05:15:27;;;;;;;48.90;29.85;;;;;;;8.75;72.25;101315.47;6277385;22;19999;-61
2022/03/29 05:17:53;;;;;;;52.88;29.42;;;;;;;8.74;73.24;101313.72;6277843;22;20003;-60
2022/03/29 05:20:18;;;;;;;49.67;28.73;;;;;;;8.73;73.24;101309.25;6277402;22;20007;-60
2022/03/29 05:22:45;;;;;;;55.97;29.55;;;;;;;8.65;73.24;101312.56;6277166;22;20417;-61
2022/03/29 05:25:12;;;;;;;61.78;34.30;;;;;;;8.60;73.34;101308.91;6277619;22;20071;-61
2022/03/29 05:27:38;;;;;;;55.25;30.83;;;;;;;8.59;73.19;101313.28;6277202;22;20487;-61
2022/03/29 05:30:04;;;;;;;53.13;29.63;;;;;;;8.57;74.20;101315.00;6277550;22;20007;-61
2022/03/29 05:32:29;;;;;;;54.35;30.42;;;;;;;8.57;73.94;101316.75;6277263;22;20443;-61
2022/03/29 05:34:55;;;;;;;50.25;29.30;;;;;;;8.52;75.04;101313.97;6277360;22;20007;-60
2022/03/29 05:37:20;;;;;;;51.03;29.33;;;;;;;8.52;74.54;101314.88;6277200;22;20413;-61
2022/03/29 05:39:46;;;;;;;52.85;28.85;;;;;;;8.61;74.08;101321.22;6276702;22;20103;-60
2022/03/29 05:42:11;;;;;;;48.80;29.75;;;;;;;8.55;74.31;101316.69;6250042;22;20381;-60
2022/03/29 05:44:37;;;;;;;51.45;30.48;;;;;;;8.49;74.77;101321.81;6277373;22;20456;-60
2022/03/29 05:49:48;;;;;;;50.20;29.40;;;;;;;8.53;74.57;101319.31;6277038;22;20057;-58
2022/03/29 05:52:14;;;;;;;52.72;29.83;;;;;;;8.56;74.76;101318.47;6277014;22;20003;-58
2022/03/29 05:54:41;;;;;;;53.67;30.67;;;;;;;8.69;74.49;101317.03;6277249;22;20042;-61
2022/03/29 05:57:07;;;;;;;52.85;30.25;;;;;;;8.67;74.28;101314.38;6276748;22;20004;-61
2022/03/29 05:59:34;;;;;;;53.28;30.52;;;;;;;8.70;74.42;101314.47;6276880;22;20054;-61
2022/03/29 06:02:04;;;;;;;54.00;32.75;;;;;;;8.69;74.96;101311.78;6277358;22;20026;-61
2022/03/29 06:04:31;;;;;;;57.50;31.58;;;;;;;8.74;74.44;101315.44;6276737;22;20000;-58
2022/03/29 06:06:57;;;;;;;55.42;32.03;;;;;;;8.80;74.89;101320.88;6277190;22;20005;-58
2022/03/29 06:09:22;;;;;;;51.75;30.52;;;;;;;8.83;73.91;101312.16;6276808;22;20325;-58
2022/03/29 06:11:48;;;;;;;51.90;30.42;;;;;;;8.84;73.72;101325.38;6276687;22;20000;-59
2022/03/29 06:14:14;;;;;;;55.53;31.55;;;;;;;8.85;74.41;101321.88;6249693;22;20011;-58
2022/03/29 06:16:41;;;;;;;50.75;29.55;;;;;;;8.82;74.43;101321.78;6276870;22;20004;-59
2022/03/29 06:19:07;;;;;;;49.45;29.30;;;;;;;8.85;74.39;101321.88;6276714;22;20007;-58
2022/03/29 06:21:34;;;;;;;54.08;30.08;;;;;;;8.83;74.16;101320.94;6276745;22;20007;-59
2022/03/29 06:24:00;;;;;;;52.53;29.58;;;;;;;8.82;74.18;101324.41;6276797;22;20006;-59
2022/03/29 06:26:25;;;;;;;54.08;31.10;;;;;;;8.82;74.60;101328.78;6277093;22;20004;-59
2022/03/29 06:28:51;;;;;;;54.90;31.98;;;;;;;8.73;74.50;101326.81;6276638;22;20003;-60
2022/03/29 06:31:16;;;;;;;57.45;31.27;;;;;;;8.69;75.42;101327.59;6276632;22;20004;-59
2022/03/29 06:33:42;;;;;;;57.53;31.08;;;;;;;8.65;75.37;101324.00;6276743;22;20057;-59
2022/03/29 06:36:07;;;;;;;58.67;32.15;;;;;;;8.62;75.40;101325.66;6276568;22;20008;-59
2022/03/29 06:38:33;;;;;;;60.13;32.15;;;;;;;8.61;75.34;101329.13;6276233;22;20383;-59
2022/03/29 06:41:02;;;;;;;55.28;31.10;;;;;;;8.68;75.69;101325.81;6276997;22;20007;-59
2022/03/29 06:43:27;;;;;;;57.60;31.35;;;;;;;8.75;74.98;101328.66;6249390;22;20004;-59
2022/03/29 06:45:53;;;;;;;60.97;32.40;;;;;;;8.79;75.55;101324.38;6276824;22;20111;-59
2022/03/29 06:48:18;;;;;;;61.85;32.63;;;;;;;8.75;75.40;101320.75;6276548;22;20490;-59
2022/03/29 06:50:44;;;;;;;59.58;32.53;;;;;;;8.73;75.16;101319.81;6276817;22;20004;-59
2022/03/29 06:53:09;;;;;;;60.70;32.05;;;;;;;8.74;76.10;101312.81;6276892;22;20078;-58
2022/03/29 06:55:35;;;;;;;62.83;31.63;;;;;;;8.74;75.67;101321.59;6276840;22;20420;-59
2022/03/29 06:58:02;;;;;;;68.13;32.38;;;;;;;8.82;75.32;101318.25;6276852;22;20000;-59
2022/03/29 07:00:27;;;;;;;62.08;31.00;;;;;;;8.89;75.14;101323.72;6276632;22;20007;-59
2022/03/29 07:02:53;;;;;;;60.30;30.52;;;;;;;9.00;74.58;101318.75;6276826;22;20481;-59
2022/03/29 07:05:19;;;;;;;60.35;31.48;;;;;;;9.08;74.61;101319.81;6276826;22;20448;-59
2022/03/29 07:07:45;;;;;;;65.13;32.53;;;;;;;9.10;74.22;101318.09;6276422;22;20004;-59
2022/03/29 07:13:01;;;;;;;65.35;33.35;;;;;;;9.12;73.99;101312.84;6279678;22;20509;-59
2022/03/29 07:15:26;;;;;;;63.40;32.20;;;;;;;9.03;74.02;101316.16;6279847;22;20455;-59
2022/03/29 07:17:52;;;;;;;59.78;31.27;;;;;;;9.04;74.21;101323.25;6279889;22;20004;-59
2022/03/29 07:20:21;;;;;;;60.67;32.50;;;;;;;9.04;74.59;101315.31;6279739;22;20007;-59
2022/03/29 07:22:48;;;;;;;66.63;33.15;;;;;;;8.98;74.80;101315.16;6279853;22;20086;-59
2022/03/29 07:25:16;;;;;;;61.78;33.05;;;;;;;8.89;75.12;101312.31;6279849;22;20010;-58
2022/03/29 07:27:41;;;;;;;60.63;31.90;;;;;;;8.86;75.11;101315.72;6279651;22;20436;-59
2022/03/29 07:30:07;;;;;;;63.55;30.60;;;;;;;8.88;75.70;101310.53;6280136;22;20004;-59
2022/03/29 07:32:42;;;;;;;65.63;32.08;;;;;;;8.88;74.95;101307.88;6279893;22;20012;-59
2022/03/29 07:35:08;;;;;;;62.72;31.63;;;;;;;8.88;75.39;101319.31;6279928;22;20071;-58
2022/03/29 07:37:39;;;;;;;65.78;31.00;;;;;;;8.95;75.89;101312.44;6279913;22;20027;-59
2022/03/29 07:40:05;;;;;;;63.08;31.42;;;;;;;8.91;75.61;101310.59;6279824;22;20004;-60
2022/03/29 07:42:32;;;;;;;65.63;31.25;;;;;;;8.95;75.03;101301.91;6280077;22;20031;-59
2022/03/29 07:44:57;;;;;;;65.93;30.27;;;;;;;8.93;75.13;101314.16;6279773;22;20004;-59
2022/03/29 07:47:23;;;;;;;64.68;29.70;;;;;;;8.89;75.52;101313.19;6279774;22;20003;-59
2022/03/29 07:49:53;;;;;;;65.93;30.90;;;;;;;8.95;75.10;101320.34;6279728;22;20441;-59
2022/03/29 07:52:19;;;;;;;66.13;31.25;;;;;;;8.97;75.59;101324.81;6252474;22;20481;-59
2022/03/29 07:54:45;;;;;;;65.63;30.77;;;;;;;9.01;75.14;101324.03;6279782;22;20042;-59
2022/03/29 07:57:10;;;;;;;67.05;30.92;;;;;;;9.03;75.07;101326.69;6279612;22;20070;-59
2022/03/29 07:59:37;;;;;;;61.97;31.70;;;;;;;8.95;74.87;101318.63;6279599;22;20004;-59
2022/03/29 08:02:06;;;;;;;58.85;30.23;;;;;;;8.99;75.70;101331.03;6279653;22;20000;-59
2022/03/29 08:04:32;;;;;;;58.03;29.35;;;;;;;8.99;75.77;101320.50;6279622;22;20444;-59
2022/03/29 08:06:59;;;;;;;60.80;30.08;;;;;;;9.02;75.28;101335.47;6279892;22;20004;-59
2022/03/29 08:09:28;;;;;;;64.65;31.35;;;;;;;9.04;75.66;101331.16;6279461;22;20010;-60
2022/03/29 08:11:55;;;;;;;61.53;30.55;;;;;;;9.18;74.96;101337.63;6279462;22;20086;-59
2022/03/29 08:14:22;;;;;;;63.90;31.02;;;;;;;9.18;75.50;101339.38;6279921;22;20026;-59
2022/03/29 08:16:48;;;;;;;63.70;30.80;;;;;;;9.14;75.25;101334.88;6252882;22;20000;-59
2022/03/29 08:19:14;;;;;;;66.57;31.92;;;;;;;9.19;75.37;101336.78;6279478;22;20003;-59
2022/03/29 08:21:49;;;;;;;66.72;32.75;;;;;;;9.20;74.70;101335.91;6278646;22;20006;-59
2022/03/29 08:24:20;;;;;;;69.78;33.33;;;;;;;9.28;74.50;101341.38;6277801;22;20004;-59
2022/03/29 08:26:46;;;;;;;73.18;32.22;;;;;;;9.37;74.02;101330.16;6277921;22;20011;-59
2022/03/29 08:29:12;;;;;;;70.55;32.63;;;;;;;9.39;74.15;101331.09;6278273;22;20018;-59
2022/03/29 08:31:40;;;;;;;62.00;32.58;;;;;;;9.39;74.10;101328.47;6278162;22;20035;-59
2022/03/29 08:34:06;;;;;;;58.47;29.30;;;;;;;9.47;74.11;101324.25;6278209;22;20078;-59
2022/03/29 08:36:32;;;;;;;62.05;31.27;;;;;;;9.48;74.42;101313.72;6277698;22;20490;-59
2022/03/29 08:38:57;;;;;;;83.43;33.22;;;;;;;9.46;73.44;101320.72;6276907;22;20019;-60
2022/03/29 08:41:26;;;;;;;76.18;32.47;;;;;;;9.44;73.66;101316.25;6277763;22;20008;-60
2022/03/29 08:43:52;;;;;;;73.15;33.03;;;;;;;9.46;73.92;101314.53;6277852;22;20003;-59
2022/03/29 08:46:18;;;;;;;76.85;33.63;;;;;;;9.46;74.02;101317.16;6277870;22;20035;-60
2022/03/29 08:48:44;;;;;;;72.97;33.13;;;;;;;9.48;74.08;101313.72;6277525;22;20428;-60
2022/03/29 08:51:10;;;;;;;66.65;31.88;;;;;;;9.47;73.77;101319.88;6276653;22;20432;-60
2022/03/29 08:53:37;;;;;;;66.15;31.60;;;;;;;9.53;73.96;101309.44;6277085;22;20007;-60
2022/03/29 08:56:03;;;;;;;82.60;35.05;;;;;;;9.56;73.88;101306.00;6277639;22;20035;-59
2022/03/29 08:58:28;;;;;;;81.07;34.85;;;;;;;9.68;73.39;101313.28;6277705;22;20409;-59
2022/03/29 09:00:54;;;;;;;87.28;36.05;;;;;;;9.77;72.67;101311.72;6277480;22;20096;-59
2022/03/29 09:03:19;;;;;;;81.25;34.55;;;;;;;9.78;72.38;101308.22;6277509;22;20004;-59
2022/03/29 09:06:04;;;;;;;76.93;32.72;;;;;;;9.84;72.33;101309.22;6277492;22;20011;-60
2022/03/29 09:08:41;;;;;;;78.97;34.83;;;;;;;9.83;72.49;101313.59;6277326;22;20004;-59
2022/03/29 09:11:08;;;;;;;80.43;34.15;;;;;;;9.84;73.03;101310.09;6277335;22;20049;-59
2022/03/29 09:13:34;;;;;;;71.35;33.30;;;;;;;9.88;72.46;101314.59;6277295;22;20030;-59
2022/03/29 09:16:01;;;;;;;76.03;33.17;;;;;;;9.92;72.50;101319.06;6250259;22;20026;-59
2022/03/29 09:18:30;;;;;;;73.38;33.72;;;;;;;9.94;72.71;101314.72;6277417;22;20029;-59
2022/03/29 09:21:13;;;;;;;75.30;34.70;;;;;;;9.95;72.37;101324.44;6277104;22;20428;-59
2022/03/29 09:23:41;;;;;;;75.55;34.53;;;;;;;9.88;72.47;101314.59;6277387;22;20101;-60
2022/03/29 09:26:24;;;;;;;69.45;33.97;;;;;;;9.86;72.58;101308.41;6277531;22;20351;-59
2022/03/29 09:28:50;;;;;;;66.25;32.38;;;;;;;9.92;72.45;101312.91;6277301;22;19999;-59
2022/03/29 09:31:21;;;;;;;73.00;31.75;;;;;;;9.93;72.46;101318.22;6277024;22;20031;-60
2022/03/29 09:33:46;;;;;;;60.08;30.58;;;;;;;10.00;72.44;101309.56;6276971;22;20060;-59
2022/03/29 09:36:14;;;;;;;64.22;31.60;;;;;;;10.02;71.91;101304.31;6277126;22;20008;-59
2022/03/29 09:38:47;;;;;;;61.13;30.92;;;;;;;9.99;72.08;101310.44;6276830;22;20012;-59
2022/03/29 09:41:29;;;;;;;61.47;31.33;;;;;;;10.03;71.88;101311.38;6277186;22;20086;-59
2022/03/29 09:44:16;;;;;;;60.50;30.52;;;;;;;9.96;72.67;101313.00;6277088;22;20004;-59
2022/03/29 09:46:54;;;;;;;61.72;30.75;;;;;;;9.94;72.34;101300.66;6277428;22;20074;-59
2022/03/29 09:49:20;;;;;;;54.90;29.38;;;;;;;10.00;72.33;101309.56;6277132;22;20011;-59
2022/03/29 09:51:47;;;;;;;54.35;29.33;;;;;;;10.01;72.05;101299.88;6277016;22;20000;-59
2022/03/29 09:54:13;;;;;;;53.33;29.40;;;;;;;10.02;71.80;101294.66;6276935;22;20008;-59
2022/03/29 09:56:39;;;;;;;56.55;29.52;;;;;;;10.03;71.85;101292.91;6276811;22;20007;-59
2022/03/29 09:59:07;;;;;;;58.85;29.95;;;;;;;10.04;71.99;101300.84;6277024;22;20000;-59
2022/03/29 10:01:49;;;;;;;56.22;29.98;;;;;;;10.07;71.82;101296.50;6277051;22;20003;-59
2022/03/29 10:04:18;;;;;;;53.63;28.80;;;;;;;10.07;72.00;101291.22;6249764;22;20007;-59
2022/03/29 10:06:46;;;;;;;51.08;28.30;;;;;;;10.05;71.96;101285.91;6276817;22;20019;-59
2022/03/29 10:09:30;;;;;;;54.55;29.83;;;;;;;10.08;71.71;101280.69;6276697;22;20007;-59
2022/03/29 10:12:05;;;;;;;49.53;27.90;;;;;;;10.04;72.35;101276.19;6276927;22;20008;-61
2022/03/29 10:14:36;;;;;;;54.80;29.13;;;;;;;9.99;72.36;101273.47;6249739;22;20447;-60
2022/03/29 10:17:03;;;;;;;55.67;28.10;;;;;;;10.06;72.17;101258.63;6277340;22;20039;-59
2022/03/29 10:19:47;;;;;;;55.25;29.58;;;;;;;10.08;72.10;101254.28;6277087;22;20481;-60
2022/03/29 10:22:13;;;;;;;51.70;28.55;;;;;;;10.10;71.86;101264.84;6277100;22;20067;-60
2022/03/29 10:24:39;;;;;;;55.15;30.40;;;;;;;10.09;72.38;101255.16;6276756;22;20038;-60
2022/03/29 10:27:05;;;;;;;54.40;30.25;;;;;;;10.06;72.32;101255.97;6276681;22;20425;-60
2022/03/29 10:29:31;;;;;;;55.90;30.20;;;;;;;10.13;72.35;101259.66;6276761;22;20003;-60
2022/03/29 10:32:05;;;;;;;54.95;29.60;;;;;;;10.23;72.24;101251.91;6276659;22;20455;-60
2022/03/29 10:34:37;;;;;;;53.63;27.60;;;;;;;10.36;71.45;101252.16;6276497;22;20078;-60
2022/03/29 10:37:23;;;;;;;50.50;28.30;;;;;;;10.43;71.45;101254.06;6276657;22;20007;-60
2022/03/29 10:39:59;;;;;;;51.60;26.90;;;;;;;10.50;71.33;101259.50;6276312;22;20039;-60
2022/03/29 10:42:41;;;;;;;51.78;29.45;;;;;;;10.50;71.11;101254.22;6249374;22;20007;-60
2022/03/29 10:45:22;;;;;;;42.65;26.33;;;;;;;10.50;70.78;101250.69;6276520;22;20007;-61
2022/03/29 10:48:11;;;;;;;43.83;25.67;;;;;;;10.63;70.49;101246.50;6276479;22;20003;-60
2022/03/29 10:50:51;;;;;;;48.28;28.33;;;;;;;10.66;70.88;101252.72;6276479;22;20003;-60
2022/03/29 10:53:37;;;;;;;51.75;28.17;;;;;;;10.64;70.33;101257.09;6276378;22;19999;-60
2022/03/29 10:56:20;;;;;;;49.10;27.55;;;;;;;10.69;70.30;101249.22;6276484;22;20057;-60
2022/03/29 10:59:15;;;;;;;46.55;24.92;;;;;;;10.87;69.84;101246.00;6276645;22;20045;-60
2022/03/29 11:01:43;;;;;;;50.33;27.27;;;;;;;10.91;69.28;101235.50;6153134;23;20010;-61
2022/03/29 11:04:21;;;;;;;44.70;26.92;;;;;;;11.05;69.37;101235.72;6153279;23;20013;-60
2022/03/29 11:07:05;;;;;;;45.80;27.88;;;;;;;11.16;68.77;101234.09;6128991;23;20006;-60
2022/03/29 11:09:30;;;;;;;46.92;26.38;;;;;;;11.19;69.30;101231.53;6153442;23;20020;-60
2022/03/29 11:11:56;;;;;;;45.30;26.23;;;;;;;11.40;68.17;101233.56;6153221;23;20033;-60
2022/03/29 11:14:33;;;;;;;46.70;27.55;;;;;;;11.59;67.13;101221.47;6153050;23;20528;-61
2022/03/29 11:17:11;;;;;;;54.33;30.55;;;;;;;11.61;67.56;101217.09;6153154;23;20144;-60
2022/03/29 11:19:48;;;;;;;50.40;29.20;;;;;;;11.73;67.05;101206.66;6152893;23;20013;-60
2022/03/29 11:22:42;;;;;;;55.90;31.08;;;;;;;11.92;67.36;101205.13;6153170;23;20013;-60
2022/03/29 11:25:12;;;;;;;49.20;29.13;;;;;;;11.99;66.38;101203.41;6152984;23;20010;-60